sensor_id;sensor_type;location;lat;lon;timestamp;pressure;altitude;pressure_sealevel;temperature;humidity
15489;BME280;7846;48.830;9.116;2023-06-14T00:00:37;97358.50;;;17.53;49.39
15489;BME280;7846;48.830;9.116;2023-06-14T00:03:08;97364.97;;;17.25;49.17
15489;BME280;7846;48.830;9.116;2023-06-14T00:05:36;97363.78;;;17.59;48.43
15489;BME280;7846;48.830;9.116;2023-06-14T00:08:09;97359.09;;;17.61;48.86
15489;BME280;7846;48.830;9.116;2023-06-14T00:10:36;97362.31;;;17.32;50.13
15489;BME280;7846;48.830;9.116;2023-06-14T00:13:04;97361.06;;;17.28;50.33
15489;BME280;7846;48.830;9.116;2023-06-14T00:15:31;97367.00;;;17.30;50.04
15489;BME280;7846;48.830;9.116;2023-06-14T00:17:57;97369.28;;;17.26;50.31
15489;BME280;7846;48.830;9.116;2023-06-14T00:20:28;97366.22;;;17.23;50.06
15489;BME280;7846;48.830;9.116;2023-06-14T00:22:56;97371.44;;;16.91;50.76
15489;BME280;7846;48.830;9.116;2023-06-14T00:25:23;97367.75;;;16.92;50.96
15489;BME280;7846;48.830;9.116;2023-06-14T00:27:49;97373.22;;;17.17;49.91
15489;BME280;7846;48.830;9.116;2023-06-14T00:30:14;97368.03;;;17.29;50.29
15489;BME280;7846;48.830;9.116;2023-06-14T00:32:40;97371.94;;;17.26;49.96
15489;BME280;7846;48.830;9.116;2023-06-14T00:35:07;97372.16;;;17.25;49.52
15489;BME280;7846;48.830;9.116;2023-06-14T00:37:33;97379.94;;;17.20;50.05
15489;BME280;7846;48.830;9.116;2023-06-14T00:39:59;97370.59;;;16.97;51.07
15489;BME280;7846;48.830;9.116;2023-06-14T00:42:25;97367.03;;;17.23;50.48
15489;BME280;7846;48.830;9.116;2023-06-14T00:44:51;97368.88;;;17.23;50.38
15489;BME280;7846;48.830;9.116;2023-06-14T00:47:17;97360.91;;;17.23;50.26
15489;BME280;7846;48.830;9.116;2023-06-14T00:49:45;97368.59;;;17.37;50.60
15489;BME280;7846;48.830;9.116;2023-06-14T00:52:11;97371.31;;;17.24;50.55
15489;BME280;7846;48.830;9.116;2023-06-14T00:54:38;97367.03;;;17.23;50.68
15489;BME280;7846;48.830;9.116;2023-06-14T00:57:04;97364.03;;;17.00;51.15
15489;BME280;7846;48.830;9.116;2023-06-14T00:59:29;97366.78;;;16.80;51.69
15489;BME280;7846;48.830;9.116;2023-06-14T01:01:56;97366.97;;;16.78;51.33
15489;BME280;7846;48.830;9.116;2023-06-14T01:04:21;97369.63;;;16.78;50.97
15489;BME280;7846;48.830;9.116;2023-06-14T01:07:00;97365.94;;;16.79;50.79
15489;BME280;7846;48.830;9.116;2023-06-14T01:14:47;97374.94;;;16.45;52.98
15489;BME280;7846;48.830;9.116;2023-06-14T01:17:14;97373.72;;;16.41;52.37
15489;BME280;7846;48.830;9.116;2023-06-14T01:19:42;97382.28;;;16.56;52.28
15489;BME280;7846;48.830;9.116;2023-06-14T01:22:09;97380.66;;;16.42;52.52
15489;BME280;7846;48.830;9.116;2023-06-14T01:24:35;97375.34;;;16.42;52.34
15489;BME280;7846;48.830;9.116;2023-06-14T01:27:02;97381.28;;;16.51;52.51
15489;BME280;7846;48.830;9.116;2023-06-14T01:29:29;97373.72;;;16.48;51.93
15489;BME280;7846;48.830;9.116;2023-06-14T01:31:58;97380.47;;;16.43;52.28
15489;BME280;7846;48.830;9.116;2023-06-14T01:34:24;97379.03;;;16.41;52.32
15489;BME280;7846;48.830;9.116;2023-06-14T01:36:52;97385.16;;;16.55;52.38
15489;BME280;7846;48.830;9.116;2023-06-14T01:39:20;97375.75;;;16.45;52.36
15489;BME280;7846;48.830;9.116;2023-06-14T01:41:46;97379.44;;;16.38;52.66
15489;BME280;7846;48.830;9.116;2023-06-14T01:44:13;97375.75;;;16.52;52.53
15489;BME280;7846;48.830;9.116;2023-06-14T01:46:41;97373.50;;;16.56;52.56
15489;BME280;7846;48.830;9.116;2023-06-14T01:49:09;97374.75;;;16.33;52.77
15489;BME280;7846;48.830;9.116;2023-06-14T01:51:34;97381.69;;;16.21;52.87
15489;BME280;7846;48.830;9.116;2023-06-14T01:54:00;97375.75;;;16.12;52.93
15489;BME280;7846;48.830;9.116;2023-06-14T01:56:26;97372.50;;;16.17;52.98
15489;BME280;7846;48.830;9.116;2023-06-14T01:58:52;97374.34;;;16.23;52.93
15489;BME280;7846;48.830;9.116;2023-06-14T02:01:18;97372.94;;;16.20;52.84
15489;BME280;7846;48.830;9.116;2023-06-14T02:03:46;97379.66;;;16.03;53.63
15489;BME280;7846;48.830;9.116;2023-06-14T02:06:11;97378.63;;;16.11;53.46
15489;BME280;7846;48.830;9.116;2023-06-14T02:08:39;97379.75;;;15.62;54.86
15489;BME280;7846;48.830;9.116;2023-06-14T02:11:05;97381.59;;;15.68;55.02
15489;BME280;7846;48.830;9.116;2023-06-14T02:13:31;97385.13;;;15.82;54.58
15489;BME280;7846;48.830;9.116;2023-06-14T02:15:57;97387.34;;;15.71;54.90
15489;BME280;7846;48.830;9.116;2023-06-14T02:18:23;97381.44;;;15.69;55.02
15489;BME280;7846;48.830;9.116;2023-06-14T02:20:48;97384.31;;;15.81;54.11
15489;BME280;7846;48.830;9.116;2023-06-14T02:23:14;97389.63;;;15.81;54.30
15489;BME280;7846;48.830;9.116;2023-06-14T02:25:40;97382.88;;;15.79;54.36
15489;BME280;7846;48.830;9.116;2023-06-14T02:28:05;97379.78;;;15.75;54.41
15489;BME280;7846;48.830;9.116;2023-06-14T02:30:31;97384.28;;;15.75;54.13
15489;BME280;7846;48.830;9.116;2023-06-14T02:32:56;97382.56;;;15.60;55.08
15489;BME280;7846;48.830;9.116;2023-06-14T02:35:22;97384.06;;;15.69;54.50
15489;BME280;7846;48.830;9.116;2023-06-14T02:37:49;97382.97;;;15.57;55.22
15489;BME280;7846;48.830;9.116;2023-06-14T02:40:16;97388.88;;;15.53;55.18
15489;BME280;7846;48.830;9.116;2023-06-14T02:42:42;97390.31;;;15.55;54.89
15489;BME280;7846;48.830;9.116;2023-06-14T02:45:09;97382.31;;;15.42;55.48
15489;BME280;7846;48.830;9.116;2023-06-14T02:47:34;97384.13;;;15.35;55.45
15489;BME280;7846;48.830;9.116;2023-06-14T02:49:59;97387.84;;;15.40;55.11
15489;BME280;7846;48.830;9.116;2023-06-14T02:52:28;97377.47;;;15.59;55.32
15489;BME280;7846;48.830;9.116;2023-06-14T02:54:53;97390.13;;;15.57;55.46
15489;BME280;7846;48.830;9.116;2023-06-14T02:57:19;97393.97;;;15.47;55.53
15489;BME280;7846;48.830;9.116;2023-06-14T02:59:45;97393.88;;;15.28;55.84
15489;BME280;7846;48.830;9.116;2023-06-14T03:02:11;97388.00;;;15.32;55.86
15489;BME280;7846;48.830;9.116;2023-06-14T03:04:36;97389.47;;;15.41;55.96
15489;BME280;7846;48.830;9.116;2023-06-14T03:07:05;97401.69;;;15.42;55.64
15489;BME280;7846;48.830;9.116;2023-06-14T03:09:38;97393.50;;;15.24;56.11
15489;BME280;7846;48.830;9.116;2023-06-14T03:12:06;97388.41;;;15.29;56.43
15489;BME280;7846;48.830;9.116;2023-06-14T03:14:35;97389.59;;;15.27;56.40
15489;BME280;7846;48.830;9.116;2023-06-14T03:17:01;97397.38;;;15.35;56.00
15489;BME280;7846;48.830;9.116;2023-06-14T03:19:26;97396.13;;;15.24;56.37
15489;BME280;7846;48.830;9.116;2023-06-14T03:21:52;97396.38;;;15.36;56.14
15489;BME280;7846;48.830;9.116;2023-06-14T03:24:18;97400.00;;;15.21;56.81
15489;BME280;7846;48.830;9.116;2023-06-14T03:26:44;97402.19;;;15.11;57.04
15489;BME280;7846;48.830;9.116;2023-06-14T03:29:10;97403.63;;;15.14;57.05
15489;BME280;7846;48.830;9.116;2023-06-14T03:31:35;97406.53;;;15.25;56.51
15489;BME280;7846;48.830;9.116;2023-06-14T03:34:01;97407.56;;;15.31;56.73
15489;BME280;7846;48.830;9.116;2023-06-14T03:36:28;97406.03;;;15.09;56.81
15489;BME280;7846;48.830;9.116;2023-06-14T03:38:54;97413.38;;;15.07;56.41
15489;BME280;7846;48.830;9.116;2023-06-14T03:41:20;97422.16;;;15.07;56.56
15489;BME280;7846;48.830;9.116;2023-06-14T03:43:45;97422.47;;;15.32;55.93
15489;BME280;7846;48.830;9.116;2023-06-14T03:46:11;97416.97;;;15.34;56.02
15489;BME280;7846;48.830;9.116;2023-06-14T03:48:36;97429.00;;;15.30;55.59
15489;BME280;7846;48.830;9.116;2023-06-14T03:51:02;97429.84;;;15.37;55.81
15489;BME280;7846;48.830;9.116;2023-06-14T03:53:27;97434.88;;;15.25;56.53
15489;BME280;7846;48.830;9.116;2023-06-14T03:55:54;97434.38;;;15.43;56.09
15489;BME280;7846;48.830;9.116;2023-06-14T03:58:19;97443.19;;;15.50;55.85
15489;BME280;7846;48.830;9.116;2023-06-14T04:00:48;97437.69;;;15.58;56.13
15489;BME280;7846;48.830;9.116;2023-06-14T04:03:13;97443.53;;;15.40;56.18
15489;BME280;7846;48.830;9.116;2023-06-14T04:05:40;97438.00;;;15.42;56.03
15489;BME280;7846;48.830;9.116;2023-06-14T04:08:08;97433.38;;;15.51;55.95
15489;BME280;7846;48.830;9.116;2023-06-14T04:10:34;97439.09;;;15.54;55.82
15489;BME280;7846;48.830;9.116;2023-06-14T04:12:59;97448.09;;;15.60;55.91
15489;BME280;7846;48.830;9.116;2023-06-14T04:15:25;97442.03;;;15.66;55.32
15489;BME280;7846;48.830;9.116;2023-06-14T04:17:53;97451.88;;;15.79;55.14
15489;BME280;7846;48.830;9.116;2023-06-14T04:20:23;97449.69;;;15.95;54.73
15489;BME280;7846;48.830;9.116;2023-06-14T04:22:52;97453.16;;;15.96;54.73
15489;BME280;7846;48.830;9.116;2023-06-14T04:25:23;97452.09;;;15.84;55.05
15489;BME280;7846;48.830;9.116;2023-06-14T04:27:50;97463.75;;;15.89;55.01
15489;BME280;7846;48.830;9.116;2023-06-14T04:30:15;97466.38;;;15.83;55.43
15489;BME280;7846;48.830;9.116;2023-06-14T04:32:41;97462.38;;;16.07;54.79
15489;BME280;7846;48.830;9.116;2023-06-14T04:35:08;97458.91;;;16.06;55.02
15489;BME280;7846;48.830;9.116;2023-06-14T04:37:34;97463.63;;;16.17;54.86
15489;BME280;7846;48.830;9.116;2023-06-14T04:40:00;97455.25;;;16.20;54.50
15489;BME280;7846;48.830;9.116;2023-06-14T04:42:25;97459.94;;;16.18;54.65
15489;BME280;7846;48.830;9.116;2023-06-14T04:44:56;97460.97;;;16.37;54.21
15489;BME280;7846;48.830;9.116;2023-06-14T04:47:22;97463.63;;;16.31;54.26
15489;BME280;7846;48.830;9.116;2023-06-14T04:49:50;97465.50;;;16.50;53.93
15489;BME280;7846;48.830;9.116;2023-06-14T04:52:17;97473.28;;;16.65;53.89
15489;BME280;7846;48.830;9.116;2023-06-14T04:54:46;97469.81;;;16.91;53.44
15489;BME280;7846;48.830;9.116;2023-06-14T04:57:12;97471.03;;;16.88;52.70
15489;BME280;7846;48.830;9.116;2023-06-14T04:59:39;97480.81;;;17.21;52.30
15489;BME280;7846;48.830;9.116;2023-06-14T05:02:04;97479.31;;;17.45;51.85
15489;BME280;7846;48.830;9.116;2023-06-14T05:04:30;97482.94;;;17.57;51.38
15489;BME280;7846;48.830;9.116;2023-06-14T05:06:55;97493.97;;;17.81;50.77
15489;BME280;7846;48.830;9.116;2023-06-14T05:09:21;97496.16;;;17.90;50.56
15489;BME280;7846;48.830;9.116;2023-06-14T05:11:47;97499.38;;;18.06;50.01
15489;BME280;7846;48.830;9.116;2023-06-14T05:14:13;97502.59;;;18.21;49.98
15489;BME280;7846;48.830;9.116;2023-06-14T05:16:39;97495.53;;;18.33;49.53
15489;BME280;7846;48.830;9.116;2023-06-14T05:19:06;97491.63;;;18.61;49.21
15489;BME280;7846;48.830;9.116;2023-06-14T05:21:32;97494.22;;;18.43;49.46
15489;BME280;7846;48.830;9.116;2023-06-14T05:24:00;97502.56;;;18.53;49.25
15489;BME280;7846;48.830;9.116;2023-06-14T05:26:26;97497.84;;;18.55;49.24
15489;BME280;7846;48.830;9.116;2023-06-14T05:28:58;97502.47;;;18.73;48.92
15489;BME280;7846;48.830;9.116;2023-06-14T05:31:27;97503.22;;;19.05;48.53
15489;BME280;7846;48.830;9.116;2023-06-14T05:33:56;97500.00;;;18.96;49.48
15489;BME280;7846;48.830;9.116;2023-06-14T05:36:21;97500.91;;;19.33;48.68
15489;BME280;7846;48.830;9.116;2023-06-14T05:38:47;97508.06;;;19.15;49.29
15489;BME280;7846;48.830;9.116;2023-06-14T05:41:13;97505.03;;;19.29;49.20
15489;BME280;7846;48.830;9.116;2023-06-14T05:43:39;97510.59;;;19.28;49.00
15489;BME280;7846;48.830;9.116;2023-06-14T05:46:04;97516.25;;;19.56;47.92
15489;BME280;7846;48.830;9.116;2023-06-14T05:48:31;97509.28;;;19.55;48.63
15489;BME280;7846;48.830;9.116;2023-06-14T05:50:57;97505.09;;;19.85;47.97
15489;BME280;7846;48.830;9.116;2023-06-14T05:53:23;97508.63;;;19.97;48.23
15489;BME280;7846;48.830;9.116;2023-06-14T05:55:50;97505.44;;;20.06;48.26
15489;BME280;7846;48.830;9.116;2023-06-14T05:58:21;97509.59;;;20.02;48.20
15489;BME280;7846;48.830;9.116;2023-06-14T06:00:47;97507.91;;;19.90;47.84
15489;BME280;7846;48.830;9.116;2023-06-14T06:03:12;97503.13;;;19.55;48.97
15489;BME280;7846;48.830;9.116;2023-06-14T06:05:38;97509.19;;;20.17;47.17
15489;BME280;7846;48.830;9.116;2023-06-14T06:08:04;97508.09;;;20.37;47.56
15489;BME280;7846;48.830;9.116;2023-06-14T06:10:30;97505.91;;;20.75;47.18
15489;BME280;7846;48.830;9.116;2023-06-14T06:12:58;97509.28;;;20.11;47.04
15489;BME280;7846;48.830;9.116;2023-06-14T06:15:24;97511.16;;;20.82;46.94
15489;BME280;7846;48.830;9.116;2023-06-14T06:17:50;97517.75;;;20.38;47.29
15489;BME280;7846;48.830;9.116;2023-06-14T06:20:16;97521.94;;;20.75;46.44
15489;BME280;7846;48.830;9.116;2023-06-14T06:22:42;97517.75;;;20.38;47.09
15489;BME280;7846;48.830;9.116;2023-06-14T06:25:08;97517.28;;;20.71;46.09
15489;BME280;7846;48.830;9.116;2023-06-14T06:27:34;97516.22;;;20.60;47.38
15489;BME280;7846;48.830;9.116;2023-06-14T06:30:04;97525.13;;;21.08;46.44
15489;BME280;7846;48.830;9.116;2023-06-14T06:32:30;97520.34;;;21.10;46.72
15489;BME280;7846;48.830;9.116;2023-06-14T06:34:56;97523.41;;;21.25;46.85
15489;BME280;7846;48.830;9.116;2023-06-14T06:37:25;97525.50;;;20.99;46.61
15489;BME280;7846;48.830;9.116;2023-06-14T06:39:51;97529.78;;;21.24;45.98
15489;BME280;7846;48.830;9.116;2023-06-14T06:42:16;97521.66;;;21.66;45.00
15489;BME280;7846;48.830;9.116;2023-06-14T06:44:42;97532.00;;;21.27;46.00
15489;BME280;7846;48.830;9.116;2023-06-14T06:47:08;97528.38;;;21.10;46.79
15489;BME280;7846;48.830;9.116;2023-06-14T06:49:34;97531.66;;;21.70;45.89
15489;BME280;7846;48.830;9.116;2023-06-14T06:54:27;97540.63;;;21.29;46.42
15489;BME280;7846;48.830;9.116;2023-06-14T06:56:52;97534.25;;;21.54;46.17
15489;BME280;7846;48.830;9.116;2023-06-14T06:59:18;97541.09;;;21.73;45.53
15489;BME280;7846;48.830;9.116;2023-06-14T07:01:43;97543.91;;;21.43;44.48
15489;BME280;7846;48.830;9.116;2023-06-14T07:04:08;97550.34;;;22.17;43.39
15489;BME280;7846;48.830;9.116;2023-06-14T07:06:34;97546.94;;;21.46;43.02
15489;BME280;7846;48.830;9.116;2023-06-14T07:08:59;97540.41;;;21.54;43.70
15489;BME280;7846;48.830;9.116;2023-06-14T07:11:26;97553.28;;;22.44;42.39
15489;BME280;7846;48.830;9.116;2023-06-14T07:13:52;97557.19;;;21.49;43.22
15489;BME280;7846;48.830;9.116;2023-06-14T07:16:18;97549.47;;;21.65;43.18
15489;BME280;7846;48.830;9.116;2023-06-14T07:18:43;97557.97;;;21.03;44.25
15489;BME280;7846;48.830;9.116;2023-06-14T07:21:09;97555.66;;;21.54;43.63
15489;BME280;7846;48.830;9.116;2023-06-14T07:23:34;97552.34;;;21.98;43.03
15489;BME280;7846;48.830;9.116;2023-06-14T07:26:00;97559.88;;;22.54;42.83
15489;BME280;7846;48.830;9.116;2023-06-14T07:28:25;97565.22;;;22.82;42.16
15489;BME280;7846;48.830;9.116;2023-06-14T07:30:51;97566.19;;;22.19;41.77
15489;BME280;7846;48.830;9.116;2023-06-14T07:33:17;97570.63;;;22.02;42.63
15489;BME280;7846;48.830;9.116;2023-06-14T07:35:42;97571.94;;;21.75;42.55
15489;BME280;7846;48.830;9.116;2023-06-14T07:38:08;97571.38;;;21.50;42.03
15489;BME280;7846;48.830;9.116;2023-06-14T07:40:34;97576.69;;;22.09;41.23
15489;BME280;7846;48.830;9.116;2023-06-14T07:43:00;97580.88;;;22.05;40.46
15489;BME280;7846;48.830;9.116;2023-06-14T07:45:27;97580.28;;;22.26;40.26
15489;BME280;7846;48.830;9.116;2023-06-14T07:47:52;97576.91;;;23.22;38.97
15489;BME280;7846;48.830;9.116;2023-06-14T07:50:18;97586.44;;;22.96;39.76
15489;BME280;7846;48.830;9.116;2023-06-14T07:52:45;97588.28;;;24.01;39.35
15489;BME280;7846;48.830;9.116;2023-06-14T07:55:11;97588.03;;;23.81;38.28
15489;BME280;7846;48.830;9.116;2023-06-14T07:57:37;97591.00;;;24.45;39.48
15489;BME280;7846;48.830;9.116;2023-06-14T08:00:03;97587.47;;;24.67;37.86
15489;BME280;7846;48.830;9.116;2023-06-14T08:02:31;97578.44;;;24.07;38.41
15489;BME280;7846;48.830;9.116;2023-06-14T08:04:57;97577.72;;;24.17;38.83
15489;BME280;7846;48.830;9.116;2023-06-14T08:07:22;97585.53;;;23.07;39.51
15489;BME280;7846;48.830;9.116;2023-06-14T08:09:47;97575.69;;;22.96;40.39
15489;BME280;7846;48.830;9.116;2023-06-14T08:12:13;97578.88;;;23.65;39.73
15489;BME280;7846;48.830;9.116;2023-06-14T08:14:39;97580.78;;;23.64;39.86
15489;BME280;7846;48.830;9.116;2023-06-14T08:17:04;97581.69;;;23.53;39.43
15489;BME280;7846;48.830;9.116;2023-06-14T08:19:31;97579.97;;;24.47;39.04
15489;BME280;7846;48.830;9.116;2023-06-14T08:21:56;97585.88;;;24.22;38.66
15489;BME280;7846;48.830;9.116;2023-06-14T08:24:22;97575.78;;;24.12;38.91
15489;BME280;7846;48.830;9.116;2023-06-14T08:26:53;97579.13;;;24.41;39.27
15489;BME280;7846;48.830;9.116;2023-06-14T08:29:18;97579.59;;;23.94;39.25
15489;BME280;7846;48.830;9.116;2023-06-14T08:31:43;97587.63;;;24.33;39.83
15489;BME280;7846;48.830;9.116;2023-06-14T08:34:09;97590.13;;;25.21;38.12
15489;BME280;7846;48.830;9.116;2023-06-14T08:36:35;97582.81;;;25.11;38.80
15489;BME280;7846;48.830;9.116;2023-06-14T08:39:01;97589.53;;;25.46;38.88
15489;BME280;7846;48.830;9.116;2023-06-14T08:41:27;97597.31;;;24.34;40.36
15489;BME280;7846;48.830;9.116;2023-06-14T08:43:54;97595.31;;;25.27;38.61
15489;BME280;7846;48.830;9.116;2023-06-14T08:46:20;97593.38;;;25.97;36.47
15489;BME280;7846;48.830;9.116;2023-06-14T08:48:49;97586.44;;;26.12;36.82
15489;BME280;7846;48.830;9.116;2023-06-14T08:51:19;97590.78;;;25.06;37.47
15489;BME280;7846;48.830;9.116;2023-06-14T08:53:44;97592.81;;;25.90;37.18
15489;BME280;7846;48.830;9.116;2023-06-14T08:56:13;97591.28;;;26.98;36.42
15489;BME280;7846;48.830;9.116;2023-06-14T08:58:43;97596.16;;;27.06;35.41
15489;BME280;7846;48.830;9.116;2023-06-14T09:01:11;97605.84;;;25.29;37.33
15489;BME280;7846;48.830;9.116;2023-06-14T09:03:40;97601.84;;;25.04;37.24
15489;BME280;7846;48.830;9.116;2023-06-14T09:06:07;97598.38;;;25.09;37.86
15489;BME280;7846;48.830;9.116;2023-06-14T09:08:36;97587.09;;;26.44;37.32
15489;BME280;7846;48.830;9.116;2023-06-14T09:11:05;97586.44;;;27.00;35.68
15489;BME280;7846;48.830;9.116;2023-06-14T09:13:32;97587.47;;;26.63;35.97
15489;BME280;7846;48.830;9.116;2023-06-14T09:15:59;97593.69;;;26.06;37.04
15489;BME280;7846;48.830;9.116;2023-06-14T09:18:38;97592.88;;;26.00;37.01
15489;BME280;7846;48.830;9.116;2023-06-14T09:21:06;97594.47;;;25.59;37.38
15489;BME280;7846;48.830;9.116;2023-06-14T09:23:39;97590.72;;;25.60;38.02
15489;BME280;7846;48.830;9.116;2023-06-14T09:26:16;97595.53;;;25.58;38.21
15489;BME280;7846;48.830;9.116;2023-06-14T09:28:46;97592.44;;;25.39;38.04
15489;BME280;7846;48.830;9.116;2023-06-14T09:31:13;97588.09;;;26.23;36.88
15489;BME280;7846;48.830;9.116;2023-06-14T09:33:43;97592.13;;;27.14;36.69
15489;BME280;7846;48.830;9.116;2023-06-14T09:36:22;97595.56;;;26.63;35.65
15489;BME280;7846;48.830;9.116;2023-06-14T09:38:57;97595.81;;;26.62;36.24
15489;BME280;7846;48.830;9.116;2023-06-14T09:41:38;97595.84;;;26.67;35.54
15489;BME280;7846;48.830;9.116;2023-06-14T09:44:07;97594.84;;;27.14;34.54
15489;BME280;7846;48.830;9.116;2023-06-14T09:46:33;97595.69;;;26.26;35.44
15489;BME280;7846;48.830;9.116;2023-06-14T09:49:00;97604.63;;;25.84;36.47
15489;BME280;7846;48.830;9.116;2023-06-14T09:51:27;97588.56;;;26.77;35.37
15489;BME280;7846;48.830;9.116;2023-06-14T09:53:55;97596.91;;;26.61;34.88
15489;BME280;7846;48.830;9.116;2023-06-14T09:56:41;97594.81;;;27.75;34.51
15489;BME280;7846;48.830;9.116;2023-06-14T09:59:09;97592.50;;;28.23;33.35
15489;BME280;7846;48.830;9.116;2023-06-14T10:01:36;97595.09;;;27.07;33.65
15489;BME280;7846;48.830;9.116;2023-06-14T10:04:05;97592.34;;;26.82;33.38
15489;BME280;7846;48.830;9.116;2023-06-14T10:06:32;97587.22;;;27.92;33.96
15489;BME280;7846;48.830;9.116;2023-06-14T10:08:59;97585.69;;;28.36;32.60
15489;BME280;7846;48.830;9.116;2023-06-14T10:11:27;97589.06;;;28.02;32.77
15489;BME280;7846;48.830;9.116;2023-06-14T10:13:56;97586.63;;;28.65;31.46
15489;BME280;7846;48.830;9.116;2023-06-14T10:16:39;97587.84;;;28.88;31.06
15489;BME280;7846;48.830;9.116;2023-06-14T10:19:16;97592.69;;;29.65;29.37
15489;BME280;7846;48.830;9.116;2023-06-14T10:22:09;97603.34;;;29.56;30.04
15489;BME280;7846;48.830;9.116;2023-06-14T10:24:44;97586.75;;;29.63;29.22
15489;BME280;7846;48.830;9.116;2023-06-14T10:27:13;97591.19;;;28.15;28.43
15489;BME280;7846;48.830;9.116;2023-06-14T10:32:25;97583.16;;;26.77;33.20
15489;BME280;7846;48.830;9.116;2023-06-14T10:34:58;97575.66;;;27.31;32.80
15489;BME280;7846;48.830;9.116;2023-06-14T10:37:24;97572.31;;;27.95;31.96
15489;BME280;7846;48.830;9.116;2023-06-14T10:39:50;97569.66;;;27.80;30.01
15489;BME280;7846;48.830;9.116;2023-06-14T10:42:16;97568.63;;;28.40;30.01
15489;BME280;7846;48.830;9.116;2023-06-14T10:44:43;97567.59;;;29.20;29.03
15489;BME280;7846;48.830;9.116;2023-06-14T10:47:31;97567.72;;;28.60;28.93
15489;BME280;7846;48.830;9.116;2023-06-14T10:52:28;97578.03;;;26.91;31.05
15489;BME280;7846;48.830;9.116;2023-06-14T10:55:04;97580.97;;;26.64;31.95
15489;BME280;7846;48.830;9.116;2023-06-14T10:57:31;97571.28;;;26.00;32.10
15489;BME280;7846;48.830;9.116;2023-06-14T11:00:00;97576.88;;;26.46;31.87
15489;BME280;7846;48.830;9.116;2023-06-14T11:02:51;97574.16;;;26.46;31.77
15489;BME280;7846;48.830;9.116;2023-06-14T11:05:27;97575.50;;;25.81;32.81
15489;BME280;7846;48.830;9.116;2023-06-14T11:10:41;97568.44;;;26.38;32.78
15489;BME280;7846;48.830;9.116;2023-06-14T11:13:08;97568.88;;;26.04;32.02
15489;BME280;7846;48.830;9.116;2023-06-14T11:15:35;97558.53;;;25.91;31.95
15489;BME280;7846;48.830;9.116;2023-06-14T11:18:03;97555.59;;;26.60;31.64
15489;BME280;7846;48.830;9.116;2023-06-14T11:20:30;97570.59;;;26.36;30.62
15489;BME280;7846;48.830;9.116;2023-06-14T11:22:56;97559.41;;;27.05;29.03
15489;BME280;7846;48.830;9.116;2023-06-14T11:25:23;97562.63;;;27.58;28.87
15489;BME280;7846;48.830;9.116;2023-06-14T11:27:50;97566.72;;;27.35;29.42
15489;BME280;7846;48.830;9.116;2023-06-14T11:30:16;97572.63;;;26.91;30.62
15489;BME280;7846;48.830;9.116;2023-06-14T11:32:42;97569.69;;;27.08;30.41
15489;BME280;7846;48.830;9.116;2023-06-14T11:35:11;97580.50;;;27.08;29.56
15489;BME280;7846;48.830;9.116;2023-06-14T11:37:37;97564.00;;;27.56;29.60
15489;BME280;7846;48.830;9.116;2023-06-14T11:40:04;97564.81;;;27.51;29.78
15489;BME280;7846;48.830;9.116;2023-06-14T11:42:35;97570.19;;;26.95;30.92
15489;BME280;7846;48.830;9.116;2023-06-14T11:45:01;97565.09;;;27.09;30.72
15489;BME280;7846;48.830;9.116;2023-06-14T11:47:38;97565.34;;;27.63;29.71
15489;BME280;7846;48.830;9.116;2023-06-14T11:50:08;97570.97;;;28.57;28.67
15489;BME280;7846;48.830;9.116;2023-06-14T11:52:35;97569.44;;;27.15;29.58
15489;BME280;7846;48.830;9.116;2023-06-14T11:55:02;97571.31;;;28.45;29.25
15489;BME280;7846;48.830;9.116;2023-06-14T11:57:30;97568.38;;;28.37;28.42
15489;BME280;7846;48.830;9.116;2023-06-14T11:59:58;97564.63;;;28.17;28.64
15489;BME280;7846;48.830;9.116;2023-06-14T12:02:24;97559.16;;;28.33;28.83
15489;BME280;7846;48.830;9.116;2023-06-14T12:04:53;97568.88;;;27.48;29.03
15489;BME280;7846;48.830;9.116;2023-06-14T12:07:21;97562.94;;;28.32;28.71
15489;BME280;7846;48.830;9.116;2023-06-14T12:12:26;97561.28;;;28.46;28.44
15489;BME280;7846;48.830;9.116;2023-06-14T12:14:52;97577.84;;;28.39;28.30
15489;BME280;7846;48.830;9.116;2023-06-14T12:17:18;97570.13;;;28.67;28.14
15489;BME280;7846;48.830;9.116;2023-06-14T12:19:46;97569.81;;;28.09;28.68
15489;BME280;7846;48.830;9.116;2023-06-14T12:22:12;97563.72;;;30.08;27.50
15489;BME280;7846;48.830;9.116;2023-06-14T12:24:38;97568.34;;;30.51;27.02
15489;BME280;7846;48.830;9.116;2023-06-14T12:27:05;97567.53;;;30.31;27.53
15489;BME280;7846;48.830;9.116;2023-06-14T12:29:31;97570.91;;;29.12;28.58
15489;BME280;7846;48.830;9.116;2023-06-14T12:31:57;97557.28;;;30.66;27.98
15489;BME280;7846;48.830;9.116;2023-06-14T12:34:23;97566.09;;;31.47;25.19
15489;BME280;7846;48.830;9.116;2023-06-14T12:36:50;97558.72;;;30.21;26.76
15489;BME280;7846;48.830;9.116;2023-06-14T12:39:15;97568.59;;;28.90;27.39
15489;BME280;7846;48.830;9.116;2023-06-14T12:41:41;97562.56;;;30.95;25.88
15489;BME280;7846;48.830;9.116;2023-06-14T12:44:07;97560.41;;;31.30;24.84
15489;BME280;7846;48.830;9.116;2023-06-14T12:46:33;97562.03;;;31.91;25.30
15489;BME280;7846;48.830;9.116;2023-06-14T12:48:58;97565.06;;;31.43;25.74
15489;BME280;7846;48.830;9.116;2023-06-14T12:51:24;97572.31;;;30.40;26.75
15489;BME280;7846;48.830;9.116;2023-06-14T12:53:50;97563.00;;;31.81;26.07
15489;BME280;7846;48.830;9.116;2023-06-14T12:56:17;97580.38;;;32.55;25.27
15489;BME280;7846;48.830;9.116;2023-06-14T12:58:44;97568.22;;;32.74;25.75
15489;BME280;7846;48.830;9.116;2023-06-14T13:01:09;97563.94;;;35.12;23.11
15489;BME280;7846;48.830;9.116;2023-06-14T13:03:34;97581.97;;;35.78;21.83
15489;BME280;7846;48.830;9.116;2023-06-14T13:06:00;97577.72;;;34.55;22.14
15489;BME280;7846;48.830;9.116;2023-06-14T13:08:26;97583.75;;;30.79;25.72
15489;BME280;7846;48.830;9.116;2023-06-14T13:10:53;97584.25;;;33.35;25.26
15489;BME280;7846;48.830;9.116;2023-06-14T13:13:18;97579.50;;;32.45;24.60
15489;BME280;7846;48.830;9.116;2023-06-14T13:15:43;97567.50;;;33.28;23.43
15489;BME280;7846;48.830;9.116;2023-06-14T13:18:10;97568.13;;;33.78;23.99
15489;BME280;7846;48.830;9.116;2023-06-14T13:20:38;97567.00;;;32.67;24.34
15489;BME280;7846;48.830;9.116;2023-06-14T13:23:03;97569.50;;;30.02;26.64
15489;BME280;7846;48.830;9.116;2023-06-14T13:25:31;97559.22;;;29.46;27.51
15489;BME280;7846;48.830;9.116;2023-06-14T13:27:57;97549.59;;;29.63;27.63